sensor_id;sensor_type;location;lat;lon;timestamp;P1;durP1;ratioP1;P2;durP2;ratioP2
12947;SDS011;6539;49.476;8.484;2023-04-25T00:00:03;2.77;;;2.57;;
12947;SDS011;6539;49.476;8.484;2023-04-25T00:02:32;2.47;;;2.27;;
12947;SDS011;6539;49.476;8.484;2023-04-25T00:05:00;3.23;;;2.67;;
12947;SDS011;6539;49.476;8.484;2023-04-25T00:07:30;2.73;;;2.53;;
12947;SDS011;6539;49.476;8.484;2023-04-25T00:09:57;3.23;;;2.93;;
12947;SDS011;6539;49.476;8.484;2023-04-25T00:12:28;3.03;;;2.57;;
12947;SDS011;6539;49.476;8.484;2023-04-25T00:14:58;2.73;;;2.53;;
12947;SDS011;6539;49.476;8.484;2023-04-25T00:17:24;4.33;;;3.00;;
12947;SDS011;6539;49.476;8.484;2023-04-25T00:19:51;2.73;;;2.43;;
12947;SDS011;6539;49.476;8.484;2023-04-25T00:22:23;2.93;;;2.73;;
12947;SDS011;6539;49.476;8.484;2023-04-25T00:24:51;3.30;;;3.00;;
12947;SDS011;6539;49.476;8.484;2023-04-25T00:27:18;3.47;;;2.50;;
12947;SDS011;6539;49.476;8.484;2023-04-25T00:29:44;3.97;;;3.20;;
12947;SDS011;6539;49.476;8.484;2023-04-25T00:32:10;2.97;;;2.70;;
12947;SDS011;6539;49.476;8.484;2023-04-25T00:34:36;2.63;;;2.43;;
12947;SDS011;6539;49.476;8.484;2023-04-25T00:37:02;3.17;;;2.70;;
12947;SDS011;6539;49.476;8.484;2023-04-25T00:39:28;3.03;;;2.80;;
12947;SDS011;6539;49.476;8.484;2023-04-25T00:41:53;3.03;;;2.60;;
12947;SDS011;6539;49.476;8.484;2023-04-25T00:44:19;4.53;;;2.77;;
12947;SDS011;6539;49.476;8.484;2023-04-25T00:46:47;2.97;;;2.63;;
12947;SDS011;6539;49.476;8.484;2023-04-25T00:49:15;2.80;;;2.60;;
12947;SDS011;6539;49.476;8.484;2023-04-25T00:51:46;3.07;;;2.70;;
12947;SDS011;6539;49.476;8.484;2023-04-25T00:54:14;2.87;;;2.60;;
12947;SDS011;6539;49.476;8.484;2023-04-25T00:56:41;2.97;;;2.70;;
12947;SDS011;6539;49.476;8.484;2023-04-25T00:59:08;3.53;;;2.73;;
12947;SDS011;6539;49.476;8.484;2023-04-25T01:01:35;3.37;;;3.07;;
12947;SDS011;6539;49.476;8.484;2023-04-25T01:04:01;2.87;;;2.67;;
12947;SDS011;6539;49.476;8.484;2023-04-25T01:06:27;2.67;;;2.40;;
12947;SDS011;6539;49.476;8.484;2023-04-25T01:08:56;2.67;;;2.47;;
12947;SDS011;6539;49.476;8.484;2023-04-25T01:11:22;3.73;;;3.33;;
12947;SDS011;6539;49.476;8.484;2023-04-25T01:13:50;2.50;;;2.30;;
12947;SDS011;6539;49.476;8.484;2023-04-25T01:16:16;2.90;;;2.70;;
12947;SDS011;6539;49.476;8.484;2023-04-25T01:18:42;3.17;;;2.87;;
12947;SDS011;6539;49.476;8.484;2023-04-25T01:21:11;3.60;;;2.80;;
12947;SDS011;6539;49.476;8.484;2023-04-25T01:23:38;3.43;;;3.13;;
12947;SDS011;6539;49.476;8.484;2023-04-25T01:26:06;3.30;;;3.00;;
12947;SDS011;6539;49.476;8.484;2023-04-25T01:28:35;3.70;;;2.80;;
12947;SDS011;6539;49.476;8.484;2023-04-25T01:31:03;3.87;;;3.40;;
12947;SDS011;6539;49.476;8.484;2023-04-25T01:33:34;4.53;;;3.37;;
12947;SDS011;6539;49.476;8.484;2023-04-25T01:36:00;4.53;;;3.47;;
12947;SDS011;6539;49.476;8.484;2023-04-25T01:38:29;3.80;;;3.50;;
12947;SDS011;6539;49.476;8.484;2023-04-25T01:40:57;5.90;;;3.30;;
12947;SDS011;6539;49.476;8.484;2023-04-25T01:43:23;3.67;;;3.00;;
12947;SDS011;6539;49.476;8.484;2023-04-25T01:45:51;4.63;;;3.40;;
12947;SDS011;6539;49.476;8.484;2023-04-25T01:48:19;3.53;;;3.23;;
12947;SDS011;6539;49.476;8.484;2023-04-25T01:50:45;3.80;;;3.13;;
12947;SDS011;6539;49.476;8.484;2023-04-25T01:53:13;6.90;;;3.83;;
12947;SDS011;6539;49.476;8.484;2023-04-25T01:55:39;5.03;;;3.37;;
12947;SDS011;6539;49.476;8.484;2023-04-25T01:58:10;7.07;;;3.77;;
12947;SDS011;6539;49.476;8.484;2023-04-25T02:00:38;4.00;;;3.60;;
12947;SDS011;6539;49.476;8.484;2023-04-25T02:03:05;4.87;;;3.97;;
12947;SDS011;6539;49.476;8.484;2023-04-25T02:05:35;4.37;;;3.97;;
12947;SDS011;6539;49.476;8.484;2023-04-25T02:08:08;4.70;;;4.13;;
12947;SDS011;6539;49.476;8.484;2023-04-25T02:10:34;5.60;;;5.10;;
12947;SDS011;6539;49.476;8.484;2023-04-25T02:13:01;6.03;;;5.03;;
12947;SDS011;6539;49.476;8.484;2023-04-25T02:15:27;7.07;;;5.70;;
12947;SDS011;6539;49.476;8.484;2023-04-25T02:17:53;5.37;;;4.87;;
12947;SDS011;6539;49.476;8.484;2023-04-25T02:20:25;6.17;;;5.57;;
12947;SDS011;6539;49.476;8.484;2023-04-25T02:22:51;5.63;;;5.00;;
12947;SDS011;6539;49.476;8.484;2023-04-25T02:25:18;7.07;;;5.50;;
12947;SDS011;6539;49.476;8.484;2023-04-25T02:27:45;5.67;;;5.03;;
12947;SDS011;6539;49.476;8.484;2023-04-25T02:30:14;6.00;;;5.40;;
12947;SDS011;6539;49.476;8.484;2023-04-25T02:32:45;5.77;;;5.17;;
12947;SDS011;6539;49.476;8.484;2023-04-25T02:35:16;6.53;;;4.90;;
12947;SDS011;6539;49.476;8.484;2023-04-25T02:37:44;5.83;;;4.90;;
12947;SDS011;6539;49.476;8.484;2023-04-25T02:40:10;5.83;;;5.27;;
12947;SDS011;6539;49.476;8.484;2023-04-25T02:42:36;8.00;;;5.40;;
12947;SDS011;6539;49.476;8.484;2023-04-25T02:45:02;7.67;;;5.40;;
12947;SDS011;6539;49.476;8.484;2023-04-25T02:47:28;6.83;;;6.13;;
12947;SDS011;6539;49.476;8.484;2023-04-25T02:50:01;6.80;;;5.37;;
12947;SDS011;6539;49.476;8.484;2023-04-25T02:52:29;6.30;;;5.30;;
12947;SDS011;6539;49.476;8.484;2023-04-25T02:54:57;6.73;;;5.10;;
12947;SDS011;6539;49.476;8.484;2023-04-25T02:57:23;6.47;;;5.10;;
12947;SDS011;6539;49.476;8.484;2023-04-25T02:59:49;5.90;;;5.30;;
12947;SDS011;6539;49.476;8.484;2023-04-25T03:02:15;7.37;;;5.27;;
12947;SDS011;6539;49.476;8.484;2023-04-25T03:04:41;6.60;;;5.73;;
12947;SDS011;6539;49.476;8.484;2023-04-25T03:07:09;6.57;;;5.33;;
12947;SDS011;6539;49.476;8.484;2023-04-25T03:09:38;6.70;;;6.00;;
12947;SDS011;6539;49.476;8.484;2023-04-25T03:12:03;7.33;;;6.60;;
12947;SDS011;6539;49.476;8.484;2023-04-25T03:14:32;10.90;;;7.20;;
12947;SDS011;6539;49.476;8.484;2023-04-25T03:17:00;9.03;;;7.20;;
12947;SDS011;6539;49.476;8.484;2023-04-25T03:19:26;8.53;;;6.53;;
12947;SDS011;6539;49.476;8.484;2023-04-25T03:21:52;8.07;;;7.27;;
12947;SDS011;6539;49.476;8.484;2023-04-25T03:24:18;8.13;;;7.03;;
12947;SDS011;6539;49.476;8.484;2023-04-25T03:26:44;7.93;;;7.03;;
12947;SDS011;6539;49.476;8.484;2023-04-25T03:29:10;7.97;;;6.13;;
12947;SDS011;6539;49.476;8.484;2023-04-25T03:31:38;8.80;;;7.00;;
12947;SDS011;6539;49.476;8.484;2023-04-25T03:34:10;8.67;;;6.83;;
12947;SDS011;6539;49.476;8.484;2023-04-25T03:36:36;7.07;;;6.13;;
12947;SDS011;6539;49.476;8.484;2023-04-25T03:39:02;7.57;;;6.60;;
12947;SDS011;6539;49.476;8.484;2023-04-25T03:41:28;7.53;;;6.67;;
12947;SDS011;6539;49.476;8.484;2023-04-25T03:43:56;8.00;;;6.90;;
12947;SDS011;6539;49.476;8.484;2023-04-25T03:46:27;9.37;;;6.47;;
12947;SDS011;6539;49.476;8.484;2023-04-25T03:48:55;8.93;;;6.67;;
12947;SDS011;6539;49.476;8.484;2023-04-25T03:51:21;8.97;;;7.10;;
12947;SDS011;6539;49.476;8.484;2023-04-25T03:53:49;7.67;;;6.87;;
12947;SDS011;6539;49.476;8.484;2023-04-25T03:56:14;8.07;;;6.67;;
12947;SDS011;6539;49.476;8.484;2023-04-25T03:58:43;12.37;;;7.83;;
12947;SDS011;6539;49.476;8.484;2023-04-25T04:01:11;9.43;;;6.93;;
12947;SDS011;6539;49.476;8.484;2023-04-25T04:03:37;7.13;;;6.40;;
12947;SDS011;6539;49.476;8.484;2023-04-25T04:06:07;7.90;;;6.90;;
12947;SDS011;6539;49.476;8.484;2023-04-25T04:08:34;8.40;;;6.87;;
12947;SDS011;6539;49.476;8.484;2023-04-25T04:11:00;8.77;;;7.40;;
12947;SDS011;6539;49.476;8.484;2023-04-25T04:13:26;7.17;;;6.47;;
12947;SDS011;6539;49.476;8.484;2023-04-25T04:15:55;8.00;;;6.73;;
12947;SDS011;6539;49.476;8.484;2023-04-25T04:18:24;6.97;;;6.27;;
12947;SDS011;6539;49.476;8.484;2023-04-25T04:20:50;7.83;;;6.10;;
12947;SDS011;6539;49.476;8.484;2023-04-25T04:23:16;7.57;;;6.03;;
12947;SDS011;6539;49.476;8.484;2023-04-25T04:25:41;7.90;;;6.30;;
12947;SDS011;6539;49.476;8.484;2023-04-25T04:28:08;6.73;;;6.13;;
12947;SDS011;6539;49.476;8.484;2023-04-25T04:30:34;7.67;;;6.10;;
12947;SDS011;6539;49.476;8.484;2023-04-25T04:33:02;6.70;;;6.10;;
12947;SDS011;6539;49.476;8.484;2023-04-25T04:35:28;6.23;;;5.63;;
12947;SDS011;6539;49.476;8.484;2023-04-25T04:37:56;6.63;;;5.77;;
12947;SDS011;6539;49.476;8.484;2023-04-25T04:40:22;7.20;;;6.43;;
12947;SDS011;6539;49.476;8.484;2023-04-25T04:42:48;6.13;;;5.53;;
12947;SDS011;6539;49.476;8.484;2023-04-25T04:45:14;6.37;;;5.73;;
12947;SDS011;6539;49.476;8.484;2023-04-25T04:47:41;6.37;;;5.77;;
12947;SDS011;6539;49.476;8.484;2023-04-25T04:50:10;7.20;;;5.87;;
12947;SDS011;6539;49.476;8.484;2023-04-25T04:52:36;6.53;;;5.30;;
12947;SDS011;6539;49.476;8.484;2023-04-25T04:55:03;6.60;;;6.00;;
12947;SDS011;6539;49.476;8.484;2023-04-25T04:57:31;7.30;;;5.97;;
12947;SDS011;6539;49.476;8.484;2023-04-25T04:59:58;6.93;;;5.77;;
12947;SDS011;6539;49.476;8.484;2023-04-25T05:02:24;6.10;;;5.30;;
12947;SDS011;6539;49.476;8.484;2023-04-25T05:04:51;6.37;;;5.67;;
12947;SDS011;6539;49.476;8.484;2023-04-25T05:07:21;7.70;;;5.87;;
12947;SDS011;6539;49.476;8.484;2023-04-25T05:09:46;7.33;;;5.93;;
12947;SDS011;6539;49.476;8.484;2023-04-25T05:12:12;6.70;;;6.03;;
12947;SDS011;6539;49.476;8.484;2023-04-25T05:14:40;7.27;;;6.43;;
12947;SDS011;6539;49.476;8.484;2023-04-25T05:17:06;9.97;;;7.27;;
12947;SDS011;6539;49.476;8.484;2023-04-25T05:19:33;7.77;;;6.97;;
12947;SDS011;6539;49.476;8.484;2023-04-25T05:22:05;7.90;;;7.10;;
12947;SDS011;6539;49.476;8.484;2023-04-25T05:24:31;7.70;;;6.73;;
12947;SDS011;6539;49.476;8.484;2023-04-25T05:27:01;7.40;;;6.47;;
12947;SDS011;6539;49.476;8.484;2023-04-25T05:29:30;9.00;;;7.07;;
12947;SDS011;6539;49.476;8.484;2023-04-25T05:32:01;7.30;;;6.60;;
12947;SDS011;6539;49.476;8.484;2023-04-25T05:34:29;8.83;;;7.23;;
12947;SDS011;6539;49.476;8.484;2023-04-25T05:36:55;7.33;;;6.43;;
12947;SDS011;6539;49.476;8.484;2023-04-25T05:39:23;7.80;;;6.80;;
12947;SDS011;6539;49.476;8.484;2023-04-25T05:41:51;7.50;;;6.70;;
12947;SDS011;6539;49.476;8.484;2023-04-25T05:44:17;11.37;;;8.23;;
12947;SDS011;6539;49.476;8.484;2023-04-25T05:46:43;14.70;;;12.00;;
12947;SDS011;6539;49.476;8.484;2023-04-25T05:49:13;11.07;;;7.87;;
12947;SDS011;6539;49.476;8.484;2023-04-25T05:51:39;12.43;;;8.53;;
12947;SDS011;6539;49.476;8.484;2023-04-25T05:54:05;7.30;;;6.60;;
12947;SDS011;6539;49.476;8.484;2023-04-25T05:56:33;9.83;;;7.80;;
12947;SDS011;6539;49.476;8.484;2023-04-25T05:58:59;10.70;;;9.10;;
12947;SDS011;6539;49.476;8.484;2023-04-25T06:01:28;7.97;;;6.97;;
12947;SDS011;6539;49.476;8.484;2023-04-25T06:03:56;7.47;;;6.63;;
12947;SDS011;6539;49.476;8.484;2023-04-25T06:06:24;9.17;;;7.07;;
12947;SDS011;6539;49.476;8.484;2023-04-25T06:08:51;10.43;;;7.20;;
12947;SDS011;6539;49.476;8.484;2023-04-25T06:11:21;8.10;;;7.30;;
12947;SDS011;6539;49.476;8.484;2023-04-25T06:13:51;7.73;;;6.93;;
12947;SDS011;6539;49.476;8.484;2023-04-25T06:16:17;8.80;;;7.47;;
12947;SDS011;6539;49.476;8.484;2023-04-25T06:18:45;9.00;;;6.73;;
12947;SDS011;6539;49.476;8.484;2023-04-25T06:21:11;8.07;;;6.57;;
12947;SDS011;6539;49.476;8.484;2023-04-25T06:23:39;9.47;;;6.47;;
12947;SDS011;6539;49.476;8.484;2023-04-25T06:26:05;11.97;;;6.60;;
12947;SDS011;6539;49.476;8.484;2023-04-25T06:28:30;6.50;;;5.73;;
12947;SDS011;6539;49.476;8.484;2023-04-25T06:30:56;9.43;;;6.43;;
12947;SDS011;6539;49.476;8.484;2023-04-25T06:33:25;7.27;;;5.90;;
12947;SDS011;6539;49.476;8.484;2023-04-25T06:35:51;8.70;;;6.73;;
12947;SDS011;6539;49.476;8.484;2023-04-25T06:38:20;7.87;;;6.30;;
12947;SDS011;6539;49.476;8.484;2023-04-25T06:40:45;7.70;;;6.00;;
12947;SDS011;6539;49.476;8.484;2023-04-25T06:43:11;9.40;;;6.67;;
12947;SDS011;6539;49.476;8.484;2023-04-25T06:45:39;11.43;;;5.50;;
12947;SDS011;6539;49.476;8.484;2023-04-25T06:48:07;7.37;;;5.13;;
12947;SDS011;6539;49.476;8.484;2023-04-25T06:50:33;9.07;;;6.07;;
12947;SDS011;6539;49.476;8.484;2023-04-25T06:53:02;10.20;;;5.73;;
12947;SDS011;6539;49.476;8.484;2023-04-25T06:55:28;8.93;;;6.03;;
12947;SDS011;6539;49.476;8.484;2023-04-25T06:57:56;9.20;;;5.90;;
12947;SDS011;6539;49.476;8.484;2023-04-25T07:00:21;10.87;;;6.30;;
12947;SDS011;6539;49.476;8.484;2023-04-25T07:02:50;8.37;;;6.40;;
12947;SDS011;6539;49.476;8.484;2023-04-25T07:05:17;11.43;;;6.30;;
12947;SDS011;6539;49.476;8.484;2023-04-25T07:07:43;11.33;;;7.00;;
12947;SDS011;6539;49.476;8.484;2023-04-25T07:10:11;9.03;;;6.93;;
12947;SDS011;6539;49.476;8.484;2023-04-25T07:12:40;9.43;;;6.97;;
12947;SDS011;6539;49.476;8.484;2023-04-25T07:15:06;8.27;;;6.07;;
12947;SDS011;6539;49.476;8.484;2023-04-25T07:17:36;12.67;;;7.20;;
12947;SDS011;6539;49.476;8.484;2023-04-25T07:20:03;12.87;;;7.50;;
12947;SDS011;6539;49.476;8.484;2023-04-25T07:22:36;11.17;;;7.27;;
12947;SDS011;6539;49.476;8.484;2023-04-25T07:25:02;16.17;;;7.67;;
12947;SDS011;6539;49.476;8.484;2023-04-25T07:27:29;10.60;;;7.00;;
12947;SDS011;6539;49.476;8.484;2023-04-25T07:29:55;11.40;;;6.90;;
12947;SDS011;6539;49.476;8.484;2023-04-25T07:32:21;8.77;;;6.27;;
12947;SDS011;6539;49.476;8.484;2023-04-25T07:34:49;15.53;;;7.10;;
12947;SDS011;6539;49.476;8.484;2023-04-25T07:37:16;8.83;;;5.97;;
12947;SDS011;6539;49.476;8.484;2023-04-25T07:39:45;9.23;;;5.80;;
12947;SDS011;6539;49.476;8.484;2023-04-25T07:42:11;13.80;;;5.80;;
12947;SDS011;6539;49.476;8.484;2023-04-25T07:44:42;13.50;;;6.67;;
12947;SDS011;6539;49.476;8.484;2023-04-25T07:47:10;11.27;;;6.53;;
12947;SDS011;6539;49.476;8.484;2023-04-25T07:49:36;10.73;;;6.87;;
12947;SDS011;6539;49.476;8.484;2023-04-25T07:52:05;14.13;;;7.70;;
12947;SDS011;6539;49.476;8.484;2023-04-25T07:54:34;14.70;;;7.23;;
12947;SDS011;6539;49.476;8.484;2023-04-25T07:57:00;14.90;;;7.33;;
12947;SDS011;6539;49.476;8.484;2023-04-25T07:59:27;14.40;;;8.93;;
12947;SDS011;6539;49.476;8.484;2023-04-25T08:01:53;12.10;;;7.07;;
12947;SDS011;6539;49.476;8.484;2023-04-25T08:04:19;14.93;;;9.93;;
12947;SDS011;6539;49.476;8.484;2023-04-25T08:06:44;13.07;;;6.97;;
12947;SDS011;6539;49.476;8.484;2023-04-25T08:09:13;14.37;;;7.27;;
12947;SDS011;6539;49.476;8.484;2023-04-25T08:11:39;16.47;;;6.77;;
12947;SDS011;6539;49.476;8.484;2023-04-25T08:14:07;9.93;;;6.47;;
12947;SDS011;6539;49.476;8.484;2023-04-25T08:16:33;10.93;;;5.63;;
12947;SDS011;6539;49.476;8.484;2023-04-25T08:18:59;11.33;;;6.90;;
12947;SDS011;6539;49.476;8.484;2023-04-25T08:21:28;12.77;;;6.30;;
12947;SDS011;6539;49.476;8.484;2023-04-25T08:23:54;11.30;;;6.30;;
12947;SDS011;6539;49.476;8.484;2023-04-25T08:26:22;11.73;;;6.87;;
12947;SDS011;6539;49.476;8.484;2023-04-25T08:28:53;11.87;;;6.93;;
12947;SDS011;6539;49.476;8.484;2023-04-25T08:31:21;13.90;;;6.43;;
12947;SDS011;6539;49.476;8.484;2023-04-25T08:33:47;9.60;;;6.20;;
12947;SDS011;6539;49.476;8.484;2023-04-25T08:36:17;15.43;;;7.07;;
12947;SDS011;6539;49.476;8.484;2023-04-25T08:38:45;13.87;;;7.10;;
12947;SDS011;6539;49.476;8.484;2023-04-25T08:41:13;13.17;;;7.17;;
12947;SDS011;6539;49.476;8.484;2023-04-25T08:43:45;13.33;;;6.30;;
12947;SDS011;6539;49.476;8.484;2023-04-25T08:46:17;10.20;;;6.57;;
12947;SDS011;6539;49.476;8.484;2023-04-25T08:48:44;12.67;;;7.27;;
12947;SDS011;6539;49.476;8.484;2023-04-25T08:51:15;10.93;;;6.23;;
12947;SDS011;6539;49.476;8.484;2023-04-25T08:53:53;8.90;;;5.07;;
12947;SDS011;6539;49.476;8.484;2023-04-25T08:56:21;9.93;;;5.13;;
12947;SDS011;6539;49.476;8.484;2023-04-25T08:58:50;10.13;;;5.30;;
12947;SDS011;6539;49.476;8.484;2023-04-25T09:01:18;12.23;;;5.20;;
12947;SDS011;6539;49.476;8.484;2023-04-25T09:03:44;8.67;;;5.80;;
12947;SDS011;6539;49.476;8.484;2023-04-25T09:06:12;9.80;;;4.43;;
12947;SDS011;6539;49.476;8.484;2023-04-25T09:08:44;10.20;;;4.90;;
12947;SDS011;6539;49.476;8.484;2023-04-25T09:11:11;8.23;;;4.97;;
12947;SDS011;6539;49.476;8.484;2023-04-25T09:13:40;10.90;;;6.30;;
12947;SDS011;6539;49.476;8.484;2023-04-25T09:16:06;10.37;;;5.80;;
12947;SDS011;6539;49.476;8.484;2023-04-25T09:18:34;10.77;;;5.87;;
12947;SDS011;6539;49.476;8.484;2023-04-25T09:21:07;10.83;;;7.47;;
12947;SDS011;6539;49.476;8.484;2023-04-25T09:26:15;7.33;;;5.10;;
12947;SDS011;6539;49.476;8.484;2023-04-25T09:28:44;11.03;;;6.13;;
12947;SDS011;6539;49.476;8.484;2023-04-25T09:31:21;14.33;;;5.63;;
12947;SDS011;6539;49.476;8.484;2023-04-25T09:33:50;9.80;;;5.20;;
12947;SDS011;6539;49.476;8.484;2023-04-25T09:36:29;13.13;;;6.60;;
12947;SDS011;6539;49.476;8.484;2023-04-25T09:39:01;12.13;;;6.27;;
12947;SDS011;6539;49.476;8.484;2023-04-25T09:41:28;14.17;;;5.70;;
12947;SDS011;6539;49.476;8.484;2023-04-25T09:43:56;11.17;;;4.97;;
12947;SDS011;6539;49.476;8.484;2023-04-25T09:46:23;13.93;;;4.67;;
12947;SDS011;6539;49.476;8.484;2023-04-25T09:48:50;8.97;;;4.67;;
12947;SDS011;6539;49.476;8.484;2023-04-25T09:51:18;8.80;;;4.43;;
12947;SDS011;6539;49.476;8.484;2023-04-25T09:53:46;8.00;;;5.43;;
12947;SDS011;6539;49.476;8.484;2023-04-25T09:56:15;12.00;;;5.37;;
12947;SDS011;6539;49.476;8.484;2023-04-25T09:58:41;9.67;;;5.47;;
12947;SDS011;6539;49.476;8.484;2023-04-25T10:01:15;9.67;;;5.77;;
12947;SDS011;6539;49.476;8.484;2023-04-25T10:03:41;7.93;;;5.73;;
12947;SDS011;6539;49.476;8.484;2023-04-25T10:06:14;10.80;;;5.93;;
12947;SDS011;6539;49.476;8.484;2023-04-25T10:08:49;13.80;;;5.57;;
12947;SDS011;6539;49.476;8.484;2023-04-25T10:11:20;8.63;;;4.60;;
12947;SDS011;6539;49.476;8.484;2023-04-25T10:13:49;10.17;;;4.90;;
12947;SDS011;6539;49.476;8.484;2023-04-25T10:16:21;11.83;;;5.10;;
12947;SDS011;6539;49.476;8.484;2023-04-25T10:18:47;6.90;;;4.60;;
12947;SDS011;6539;49.476;8.484;2023-04-25T10:21:15;6.63;;;4.20;;
12947;SDS011;6539;49.476;8.484;2023-04-25T10:23:45;9.00;;;4.60;;
12947;SDS011;6539;49.476;8.484;2023-04-25T10:26:15;7.73;;;4.80;;
12947;SDS011;6539;49.476;8.484;2023-04-25T10:28:55;6.93;;;4.03;;
12947;SDS011;6539;49.476;8.484;2023-04-25T10:31:24;8.40;;;4.63;;
12947;SDS011;6539;49.476;8.484;2023-04-25T10:33:50;10.00;;;4.90;;
12947;SDS011;6539;49.476;8.484;2023-04-25T10:36:20;7.90;;;4.67;;
12947;SDS011;6539;49.476;8.484;2023-04-25T10:38:50;8.60;;;4.60;;
12947;SDS011;6539;49.476;8.484;2023-04-25T10:41:18;7.57;;;3.90;;
12947;SDS011;6539;49.476;8.484;2023-04-25T10:43:46;7.87;;;4.30;;
12947;SDS011;6539;49.476;8.484;2023-04-25T10:51:24;6.53;;;3.57;;
12947;SDS011;6539;49.476;8.484;2023-04-25T10:56:24;6.10;;;3.40;;
12947;SDS011;6539;49.476;8.484;2023-04-25T10:58:51;6.23;;;3.27;;
12947;SDS011;6539;49.476;8.484;2023-04-25T11:01:36;5.87;;;3.53;;
12947;SDS011;6539;49.476;8.484;2023-04-25T11:04:28;5.97;;;3.67;;
12947;SDS011;6539;49.476;8.484;2023-04-25T11:09:45;6.77;;;3.37;;
12947;SDS011;6539;49.476;8.484;2023-04-25T11:12:14;8.90;;;3.80;;
12947;SDS011;6539;49.476;8.484;2023-04-25T11:14:41;6.03;;;3.33;;
12947;SDS011;6539;49.476;8.484;2023-04-25T11:17:09;4.93;;;3.10;;
12947;SDS011;6539;49.476;8.484;2023-04-25T11:19:36;5.27;;;2.87;;
12947;SDS011;6539;49.476;8.484;2023-04-25T11:22:02;5.13;;;3.60;;
12947;SDS011;6539;49.476;8.484;2023-04-25T11:24:32;6.07;;;3.20;;
12947;SDS011;6539;49.476;8.484;2023-04-25T11:27:09;6.80;;;3.30;;
12947;SDS011;6539;49.476;8.484;2023-04-25T11:29:35;6.03;;;3.50;;
12947;SDS011;6539;49.476;8.484;2023-04-25T11:32:01;6.30;;;3.30;;
12947;SDS011;6539;49.476;8.484;2023-04-25T11:34:28;4.63;;;3.40;;
12947;SDS011;6539;49.476;8.484;2023-04-25T11:36:55;6.07;;;3.47;;
12947;SDS011;6539;49.476;8.484;2023-04-25T11:39:23;5.07;;;3.30;;
12947;SDS011;6539;49.476;8.484;2023-04-25T11:41:52;4.83;;;3.50;;
12947;SDS011;6539;49.476;8.484;2023-04-25T11:44:19;6.37;;;3.33;;
12947;SDS011;6539;49.476;8.484;2023-04-25T11:46:48;7.67;;;3.40;;
12947;SDS011;6539;49.476;8.484;2023-04-25T11:49:15;5.97;;;3.73;;
12947;SDS011;6539;49.476;8.484;2023-04-25T11:51:45;6.87;;;3.63;;
12947;SDS011;6539;49.476;8.484;2023-04-25T11:54:13;6.90;;;3.57;;
12947;SDS011;6539;49.476;8.484;2023-04-25T11:56:44;5.37;;;3.93;;
12947;SDS011;6539;49.476;8.484;2023-04-25T11:59:10;7.03;;;3.67;;
12947;SDS011;6539;49.476;8.484;2023-04-25T12:01:46;7.90;;;3.93;;
12947;SDS011;6539;49.476;8.484;2023-04-25T12:04:17;9.00;;;6.70;;
12947;SDS011;6539;49.476;8.484;2023-04-25T12:06:46;8.83;;;4.27;;
12947;SDS011;6539;49.476;8.484;2023-04-25T12:09:20;4.77;;;3.83;;
12947;SDS011;6539;49.476;8.484;2023-04-25T12:11:55;7.03;;;5.47;;
12947;SDS011;6539;49.476;8.484;2023-04-25T12:14:29;5.90;;;4.70;;
12947;SDS011;6539;49.476;8.484;2023-04-25T12:17:00;10.47;;;6.57;;
12947;SDS011;6539;49.476;8.484;2023-04-25T12:19:36;7.60;;;4.23;;
12947;SDS011;6539;49.476;8.484;2023-04-25T12:22:27;7.50;;;4.30;;
12947;SDS011;6539;49.476;8.484;2023-04-25T12:24:53;8.23;;;4.30;;
12947;SDS011;6539;49.476;8.484;2023-04-25T12:27:18;5.47;;;4.00;;
12947;SDS011;6539;49.476;8.484;2023-04-25T12:29:55;7.23;;;4.37;;
12947;SDS011;6539;49.476;8.484;2023-04-25T12:32:22;7.07;;;4.23;;
12947;SDS011;6539;49.476;8.484;2023-04-25T12:34:48;5.60;;;4.23;;
12947;SDS011;6539;49.476;8.484;2023-04-25T12:37:14;4.90;;;4.23;;
12947;SDS011;6539;49.476;8.484;2023-04-25T12:39:40;5.33;;;3.97;;
12947;SDS011;6539;49.476;8.484;2023-04-25T12:42:06;5.93;;;4.53;;
12947;SDS011;6539;49.476;8.484;2023-04-25T12:44:37;7.10;;;5.30;;
12947;SDS011;6539;49.476;8.484;2023-04-25T12:47:04;6.67;;;4.77;;
12947;SDS011;6539;49.476;8.484;2023-04-25T12:49:30;6.90;;;5.07;;
12947;SDS011;6539;49.476;8.484;2023-04-25T12:51:59;5.80;;;4.50;;
12947;SDS011;6539;49.476;8.484;2023-04-25T12:54:25;9.50;;;5.00;;
12947;SDS011;6539;49.476;8.484;2023-04-25T12:56:51;7.13;;;4.70;;
12947;SDS011;6539;49.476;8.484;2023-04-25T12:59:21;7.47;;;4.13;;
12947;SDS011;6539;49.476;8.484;2023-04-25T13:01:49;6.70;;;3.93;;
12947;SDS011;6539;49.476;8.484;2023-04-25T13:04:15;6.27;;;4.57;;
12947;SDS011;6539;49.476;8.484;2023-04-25T13:06:41;6.13;;;3.83;;
12947;SDS011;6539;49.476;8.484;2023-04-25T13:09:09;7.33;;;4.20;;
12947;SDS011;6539;49.476;8.484;2023-04-25T13:11:37;7.30;;;5.03;;
12947;SDS011;6539;49.476;8.484;2023-04-25T13:14:04;12.30;;;8.00;;
12947;SDS011;6539;49.476;8.484;2023-04-25T13:16:35;5.50;;;4.90;;
12947;SDS011;6539;49.476;8.484;2023-04-25T13:19:01;6.87;;;4.87;;
12947;SDS011;6539;49.476;8.484;2023-04-25T13:21:29;7.77;;;4.80;;
12947;SDS011;6539;49.476;8.484;2023-04-25T13:23:58;10.87;;;4.77;;
12947;SDS011;6539;49.476;8.484;2023-04-25T13:26:26;7.57;;;4.70;;
12947;SDS011;6539;49.476;8.484;2023-04-25T13:28:55;5.87;;;4.20;;
12947;SDS011;6539;49.476;8.484;2023-04-25T13:31:20;8.80;;;4.00;;
12947;SDS011;6539;49.476;8.484;2023-04-25T13:33:49;9.00;;;4.27;;
12947;SDS011;6539;49.476;8.484;2023-04-25T13:36:17;7.43;;;3.70;;
12947;SDS011;6539;49.476;8.484;2023-04-25T13:38:45;6.90;;;4.10;;
12947;SDS011;6539;49.476;8.484;2023-04-25T13:41:14;8.63;;;3.50;;
12947;SDS011;6539;49.476;8.484;2023-04-25T13:43:44;7.07;;;3.83;;
12947;SDS011;6539;49.476;8.484;2023-04-25T13:46:17;8.77;;;4.80;;
12947;SDS011;6539;49.476;8.484;2023-04-25T13:48:42;7.40;;;4.50;;
12947;SDS011;6539;49.476;8.484;2023-04-25T13:51:11;8.73;;;4.53;;
12947;SDS011;6539;49.476;8.484;2023-04-25T13:53:38;6.57;;;4.30;;
12947;SDS011;6539;49.476;8.484;2023-04-25T13:56:06;7.40;;;3.73;;
12947;SDS011;6539;49.476;8.484;2023-04-25T13:58:36;9.70;;;5.33;;
12947;SDS011;6539;49.476;8.484;2023-04-25T14:01:02;9.30;;;6.23;;
12947;SDS011;6539;49.476;8.484;2023-04-25T14:03:30;9.90;;;5.47;;
12947;SDS011;6539;49.476;8.484;2023-04-25T14:05:59;11.10;;;4.13;;
12947;SDS011;6539;49.476;8.484;2023-04-25T14:08:26;8.17;;;4.30;;
12947;SDS011;6539;49.476;8.484;2023-04-25T14:10:53;13.00;;;6.97;;
12947;SDS011;6539;49.476;8.484;2023-04-25T14:13:21;10.77;;;6.10;;
12947;SDS011;6539;49.476;8.484;2023-04-25T14:15:48;8.67;;;4.83;;
12947;SDS011;6539;49.476;8.484;2023-04-25T14:18:17;8.73;;;4.13;;
12947;SDS011;6539;49.476;8.484;2023-04-25T14:20:46;8.60;;;4.37;;
12947;SDS011;6539;49.476;8.484;2023-04-25T14:23:12;7.90;;;4.97;;
12947;SDS011;6539;49.476;8.484;2023-04-25T14:25:45;9.73;;;4.40;;
12947;SDS011;6539;49.476;8.484;2023-04-25T14:28:11;6.33;;;3.77;;
12947;SDS011;6539;49.476;8.484;2023-04-25T14:30:36;7.37;;;3.90;;
12947;SDS011;6539;49.476;8.484;2023-04-25T14:33:09;10.60;;;3.93;;
12947;SDS011;6539;49.476;8.484;2023-04-25T14:35:38;8.90;;;3.87;;
12947;SDS011;6539;49.476;8.484;2023-04-25T14:38:04;5.90;;;3.10;;
12947;SDS011;6539;49.476;8.484;2023-04-25T14:40:32;7.57;;;3.43;;
12947;SDS011;6539;49.476;8.484;2023-04-25T14:43:00;5.90;;;3.90;;
12947;SDS011;6539;49.476;8.484;2023-04-25T14:45:28;8.07;;;4.20;;
12947;SDS011;6539;49.476;8.484;2023-04-25T14:47:54;7.57;;;3.93;;
12947;SDS011;6539;49.476;8.484;2023-04-25T14:50:20;7.57;;;3.90;;
12947;SDS011;6539;49.476;8.484;2023-04-25T14:52:46;7.37;;;4.00;;
12947;SDS011;6539;49.476;8.484;2023-04-25T14:55:13;6.80;;;3.77;;
12947;SDS011;6539;49.476;8.484;2023-04-25T14:57:39;6.37;;;3.63;;
12947;SDS011;6539;49.476;8.484;2023-04-25T15:00:05;9.30;;;4.10;;
12947;SDS011;6539;49.476;8.484;2023-04-25T15:02:34;9.17;;;3.93;;
12947;SDS011;6539;49.476;8.484;2023-04-25T15:05:02;7.93;;;3.53;;
12947;SDS011;6539;49.476;8.484;2023-04-25T15:07:28;11.83;;;3.80;;
12947;SDS011;6539;49.476;8.484;2023-04-25T15:09:54;6.43;;;3.63;;
12947;SDS011;6539;49.476;8.484;2023-04-25T15:12:21;8.50;;;4.30;;
12947;SDS011;6539;49.476;8.484;2023-04-25T15:14:47;9.10;;;4.53;;